Los Foros de AeropuertosArg

Autor Tema: Un avión chocó contra una torre de control y murió el piloto  (Leído 2994 veces)

Desconectado LV-JOE

  • Mensajes: 1958
Tailandia: un avión chocó contra una torre de control y murió el piloto
El accidente ocurrió durante la fase de aterrizaje; hay varios heridos entre los 72 pasajeros

El piloto de un avión de Bangkok Airways murió y siete pasajeros resultaron heridos hoy cuando la aeronave derrapó al aterrizar y chocó con la torre de control del pequeño aeropuerto de la isla turística de Samui, al sur de Tailandia.

"Cinco personas sufrieron heridas graves y ya están hospitalizadas, dos heridas leves, 61 salieron ilesos, dos tripulantes están ilesos, un piloto está bien y uno murió", afirmó la aerolínea en un comunicado.

"El accidente se produjo sobre las 14H00 (07H00 GMT) y algunos pasajeros resultaron heridos y fueron evacuados al hospital", declaró por su parte Sakchai Jorpalit, jefe del distrito de Ko Samui.

El avión efectuaba una ruta interior proveniente de Krabi, otro destino turístico, también en el sur de Tailandia. "Derrapó en la pista de aterrizaje", precisaron fuentes de la compañía.

Según precisaron las fuentes, el avión es un bimotor a hélice Atr-72 de la compañía privada Bangkok Airways, y a bordo viajaban 72 pasajeros y cuatro miembros de la tripulación.

Samui, la ciudad a la que se dirigía el avión, está 700 kilómetros al sur de Bangkok, es la tercera isla más grande de Tailandia y uno de los destinos turísticos más populares del país.

Agencias AFP y EFE

http://www.lanacion.com.ar/nota.asp?nota_id=1158504



« Última Modificación: 04 de agosto de 2009, 08:54:40 por LV-JOE »
ULTIMOS VUELOS:
AEP-NQN LA4270 10DEC 0740 LV-BFO
NQN-AEP LA4275 11DEC 2020 LV-BFO
AEP-COR LA4202 16DEC 0800 LV-BRA
COR-AEP LA4217 17DEC 2010 LV-BRA
AEP-BHI AU2642 05JAN 0650  LV-BDO
BHI-AEP AU2643 07JAN 0835  LV-BOR
AEP-COR LA4202 12JAN 0710  LV-BGI
COR-AEP LA4213 13JAN 1710  LV-BTM
AEP-ROS 8R5621 20JAN 0830  LV-BEW
ROS-AEP 8R5628 22JAN 1850  LB-BMD
AEP-REL  AR2862 17FEB 0540 LV-BGZ
CRD-AEP AR2831 19FEB 2240 cancelado
CRD-EZE AR2837 20FEB 1107 LV-BGZ
 
PROXIMOS VUELOS:
Se me acabaron los viajes!! ;'(

Desconectado aeropatagonia

  • Mensajes: 537
Re: Un avión chocó contra una torre de control y murió el piloto
« Respuesta #1 : 04 de agosto de 2009, 11:15:36 »
A Bangkok Airways Aerospatiale ATR-72-500, registration HS-PGL performing flight PG-266 from Krabi to Koh Samui (Thailand) with 68 passengers and 4 crew, skidded off runway 35 at Koh Samui (6750 feet/2060 meters asphalt) and collided with an old unused control tower at around 14:30 local (07:30Z). The captain was killed, the co-pilot and 6 passengers received serious injuries and were brought to hospitals, 27 people received minor injuries (bruises and shock) and were treated on scene. The airplane received substantial damage to the nose section.

The airline believes, heavy rain at the time of the landing contributed to the accident. The airline confirms injuries, but said noone has been killed in the accident.

Authorities in Samui report, the captain of the flight has been killed in the accident, the co-pilot and six foreign passengers (4 UK, 1 Swiss, 1 Italian) received serious injuries (broken legs/bones) and were brought to local hospitals, 27 other people were suffering from bruises and shock and were treated at the airport. Emergency services managed to free the co-pilot, who was still trapped in the aircraft.

Metars (the airport has not released any new Metars after the accident so far):
VTSM 040700Z 29015KT 9000 FEW020TCU SCT120 BKN300 31/25 Q1007 A2974 TCU-NW
VTSM 040600Z 29012KT 9999 FEW020 SCT120 32/25 Q1007 A2976
VTSM 040400Z 24004KT 9999 FEW020 SCT120 31/24 Q1008 A2979
VTSM 040300Z 27008KT 9999 FEW020 SCT120 SCT300 31/24 Q1008 A2979
VTSM 040200Z 27010KT 9999 FEW020 SCT120 30/24 Q1008 A2979

Accident site (Photo: AP):

Desconectado PZDC10

  • Mensajes: 4337
  • Loco por el Boeing 727
Re: Un avión chocó contra una torre de control y murió el piloto
« Respuesta #2 : 04 de agosto de 2009, 12:53:19 »
                  El mal tiempo en esa zona es peligroso... Me hace recordar el accidente del MD82 de One Two Go que fue peor...  :(

Desconectado Phantonhive.XWB

  • Mensajes: 182
Re: Un avión chocó contra una torre de control y murió el piloto
« Respuesta #3 : 04 de agosto de 2009, 13:12:25 »
Cuantos problemas que esta teniendo ATR-72...
Muchos mas alto...Donde solo el condor puede alcanzar...Aerolineas Argentinas.

Desconectado juanse

  • Mensajes: 5231
Re: Un avión chocó contra una torre de control y murió el piloto
« Respuesta #4 : 04 de agosto de 2009, 14:46:38 »
Cuantos problemas que esta teniendo ATR-72...

que otro problema tuvo ultimamente?
siempre con...

Desconectado Phantonhive.XWB

  • Mensajes: 182
Re: Un avión chocó contra una torre de control y murió el piloto
« Respuesta #5 : 05 de agosto de 2009, 13:19:39 »
Quizas no me exprese bien, o en el apuro de postear me exprese mal. Ademas lei muy por sobre arriba el texto  :cry: Sorry...

Pero sin mucho que ver y volviendo al tema del ATR una duda que me quedo pendiente y que quiza aqui no deberia hacerla. Segun el programa May Day, el 72 tenia un diseño en el ala que favorecia la formacion de hielo, tienen idea si rediseñaron eso?...
« Última Modificación: 05 de agosto de 2009, 13:55:58 por Phantonhive.XWB »
Muchos mas alto...Donde solo el condor puede alcanzar...Aerolineas Argentinas.

Desconectado bertrand

  • Mensajes: 1862
Re: Un avión chocó contra una torre de control y murió el piloto
« Respuesta #6 : 05 de agosto de 2009, 15:10:49 »
Segun el programa May Day, el 72 tenia un diseño en el ala que favorecia la formacion de hielo, tienen idea si rediseñaron eso?...
No lo sé, pero eso no fue la causa de este accidente